sensor_id;sensor_type;location;lat;lon;timestamp;P1;durP1;ratioP1;P2;durP2;ratioP2
13685;SDS011;6915;48.296;8.874;2023-02-28T00:01:34;4.00;;;3.20;;
13685;SDS011;6915;48.296;8.874;2023-02-28T00:04:04;4.97;;;3.40;;
13685;SDS011;6915;48.296;8.874;2023-02-28T00:06:34;3.93;;;3.40;;
13685;SDS011;6915;48.296;8.874;2023-02-28T00:09:03;5.50;;;3.13;;
13685;SDS011;6915;48.296;8.874;2023-02-28T00:11:31;4.40;;;3.10;;
13685;SDS011;6915;48.296;8.874;2023-02-28T00:14:02;3.83;;;3.00;;
13685;SDS011;6915;48.296;8.874;2023-02-28T00:16:31;5.30;;;3.20;;
13685;SDS011;6915;48.296;8.874;2023-02-28T00:19:01;3.40;;;3.10;;
13685;SDS011;6915;48.296;8.874;2023-02-28T00:21:31;3.80;;;3.00;;
13685;SDS011;6915;48.296;8.874;2023-02-28T00:24:00;3.80;;;3.17;;
13685;SDS011;6915;48.296;8.874;2023-02-28T00:26:29;4.30;;;3.20;;
13685;SDS011;6915;48.296;8.874;2023-02-28T00:28:57;5.10;;;3.37;;
13685;SDS011;6915;48.296;8.874;2023-02-28T00:31:26;3.90;;;3.50;;
13685;SDS011;6915;48.296;8.874;2023-02-28T00:33:55;5.90;;;3.60;;
13685;SDS011;6915;48.296;8.874;2023-02-28T00:36:24;3.50;;;3.20;;
13685;SDS011;6915;48.296;8.874;2023-02-28T00:38:54;4.57;;;3.40;;
13685;SDS011;6915;48.296;8.874;2023-02-28T00:41:23;4.80;;;3.03;;
13685;SDS011;6915;48.296;8.874;2023-02-28T00:43:51;4.23;;;3.10;;
13685;SDS011;6915;48.296;8.874;2023-02-28T00:46:20;5.17;;;3.03;;
13685;SDS011;6915;48.296;8.874;2023-02-28T00:48:48;3.67;;;3.13;;
13685;SDS011;6915;48.296;8.874;2023-02-28T00:51:17;3.83;;;3.27;;
13685;SDS011;6915;48.296;8.874;2023-02-28T00:53:46;3.90;;;3.20;;
13685;SDS011;6915;48.296;8.874;2023-02-28T00:56:16;4.43;;;3.10;;
13685;SDS011;6915;48.296;8.874;2023-02-28T00:58:44;3.77;;;3.17;;
13685;SDS011;6915;48.296;8.874;2023-02-28T01:01:13;4.63;;;3.00;;
13685;SDS011;6915;48.296;8.874;2023-02-28T01:03:42;3.77;;;3.10;;
13685;SDS011;6915;48.296;8.874;2023-02-28T01:06:10;5.93;;;3.40;;
13685;SDS011;6915;48.296;8.874;2023-02-28T01:08:39;3.43;;;3.13;;
13685;SDS011;6915;48.296;8.874;2023-02-28T01:11:08;3.80;;;3.20;;
13685;SDS011;6915;48.296;8.874;2023-02-28T01:13:40;3.80;;;3.50;;
13685;SDS011;6915;48.296;8.874;2023-02-28T01:16:10;3.67;;;3.03;;
13685;SDS011;6915;48.296;8.874;2023-02-28T01:18:40;4.00;;;3.37;;
13685;SDS011;6915;48.296;8.874;2023-02-28T01:21:09;3.63;;;2.93;;
13685;SDS011;6915;48.296;8.874;2023-02-28T01:23:39;3.97;;;3.20;;
13685;SDS011;6915;48.296;8.874;2023-02-28T01:26:10;4.77;;;3.40;;
13685;SDS011;6915;48.296;8.874;2023-02-28T01:28:42;3.87;;;3.40;;
13685;SDS011;6915;48.296;8.874;2023-02-28T01:31:11;5.27;;;3.40;;
13685;SDS011;6915;48.296;8.874;2023-02-28T01:33:40;4.17;;;3.20;;
13685;SDS011;6915;48.296;8.874;2023-02-28T01:36:10;5.67;;;3.20;;
13685;SDS011;6915;48.296;8.874;2023-02-28T01:38:44;4.93;;;3.90;;
13685;SDS011;6915;48.296;8.874;2023-02-28T01:41:15;4.53;;;3.10;;
13685;SDS011;6915;48.296;8.874;2023-02-28T01:43:54;4.40;;;3.40;;
13685;SDS011;6915;48.296;8.874;2023-02-28T01:46:23;4.90;;;3.37;;
13685;SDS011;6915;48.296;8.874;2023-02-28T01:48:53;4.50;;;3.20;;
13685;SDS011;6915;48.296;8.874;2023-02-28T01:51:27;4.57;;;3.40;;
13685;SDS011;6915;48.296;8.874;2023-02-28T01:54:00;6.43;;;3.47;;
13685;SDS011;6915;48.296;8.874;2023-02-28T01:56:32;4.67;;;3.63;;
13685;SDS011;6915;48.296;8.874;2023-02-28T01:59:04;4.83;;;3.67;;
13685;SDS011;6915;48.296;8.874;2023-02-28T02:01:33;6.50;;;3.90;;
13685;SDS011;6915;48.296;8.874;2023-02-28T02:04:02;5.23;;;3.37;;
13685;SDS011;6915;48.296;8.874;2023-02-28T02:06:34;3.93;;;3.50;;
13685;SDS011;6915;48.296;8.874;2023-02-28T02:09:03;4.00;;;3.60;;
13685;SDS011;6915;48.296;8.874;2023-02-28T02:11:33;4.70;;;3.70;;
13685;SDS011;6915;48.296;8.874;2023-02-28T02:17:10;4.03;;;3.43;;
13685;SDS011;6915;48.296;8.874;2023-02-28T02:20:01;4.53;;;3.60;;
13685;SDS011;6915;48.296;8.874;2023-02-28T02:25:56;3.93;;;3.50;;
13685;SDS011;6915;48.296;8.874;2023-02-28T02:28:41;5.30;;;4.00;;
13685;SDS011;6915;48.296;8.874;2023-02-28T02:31:36;4.23;;;3.73;;
13685;SDS011;6915;48.296;8.874;2023-02-28T02:40:00;4.10;;;3.70;;
13685;SDS011;6915;48.296;8.874;2023-02-28T02:42:36;4.73;;;3.83;;
13685;SDS011;6915;48.296;8.874;2023-02-28T02:45:09;4.83;;;3.63;;
13685;SDS011;6915;48.296;8.874;2023-02-28T02:47:40;5.13;;;3.93;;
13685;SDS011;6915;48.296;8.874;2023-02-28T02:50:13;5.27;;;4.00;;
13685;SDS011;6915;48.296;8.874;2023-02-28T02:52:44;7.30;;;4.40;;
13685;SDS011;6915;48.296;8.874;2023-02-28T02:55:15;3.90;;;3.50;;
13685;SDS011;6915;48.296;8.874;2023-02-28T02:57:47;6.33;;;4.10;;
13685;SDS011;6915;48.296;8.874;2023-02-28T03:00:21;3.70;;;3.40;;
13685;SDS011;6915;48.296;8.874;2023-02-28T03:02:53;4.37;;;3.90;;
13685;SDS011;6915;48.296;8.874;2023-02-28T03:05:25;5.07;;;3.80;;
13685;SDS011;6915;48.296;8.874;2023-02-28T03:07:58;4.17;;;3.60;;
13685;SDS011;6915;48.296;8.874;2023-02-28T03:10:34;6.53;;;3.80;;
13685;SDS011;6915;48.296;8.874;2023-02-28T03:19:09;4.57;;;3.53;;
13685;SDS011;6915;48.296;8.874;2023-02-28T03:22:03;7.00;;;3.90;;
13685;SDS011;6915;48.296;8.874;2023-02-28T03:24:41;4.73;;;3.60;;
13685;SDS011;6915;48.296;8.874;2023-02-28T03:27:16;5.87;;;3.87;;
13685;SDS011;6915;48.296;8.874;2023-02-28T03:29:50;4.17;;;3.60;;
13685;SDS011;6915;48.296;8.874;2023-02-28T03:32:22;5.20;;;3.83;;
13685;SDS011;6915;48.296;8.874;2023-02-28T03:34:56;7.00;;;4.00;;
13685;SDS011;6915;48.296;8.874;2023-02-28T03:37:30;4.33;;;3.50;;
13685;SDS011;6915;48.296;8.874;2023-02-28T03:40:04;4.17;;;3.60;;
13685;SDS011;6915;48.296;8.874;2023-02-28T03:42:38;4.57;;;3.80;;
13685;SDS011;6915;48.296;8.874;2023-02-28T03:45:11;4.33;;;3.80;;
13685;SDS011;6915;48.296;8.874;2023-02-28T03:47:44;5.37;;;3.80;;
13685;SDS011;6915;48.296;8.874;2023-02-28T03:50:16;4.50;;;3.47;;
13685;SDS011;6915;48.296;8.874;2023-02-28T03:52:50;5.17;;;3.80;;
13685;SDS011;6915;48.296;8.874;2023-02-28T03:55:25;5.97;;;3.80;;
13685;SDS011;6915;48.296;8.874;2023-02-28T03:57:56;5.20;;;3.80;;
13685;SDS011;6915;48.296;8.874;2023-02-28T04:00:31;5.77;;;4.10;;
13685;SDS011;6915;48.296;8.874;2023-02-28T04:03:04;4.40;;;3.80;;
13685;SDS011;6915;48.296;8.874;2023-02-28T04:08:28;5.40;;;3.77;;
13685;SDS011;6915;48.296;8.874;2023-02-28T04:10:57;4.60;;;4.10;;
13685;SDS011;6915;48.296;8.874;2023-02-28T04:13:36;7.27;;;3.93;;
13685;SDS011;6915;48.296;8.874;2023-02-28T04:16:28;4.43;;;4.00;;
13685;SDS011;6915;48.296;8.874;2023-02-28T04:19:25;4.63;;;3.93;;
13685;SDS011;6915;48.296;8.874;2023-02-28T04:22:40;4.40;;;3.77;;
13685;SDS011;6915;48.296;8.874;2023-02-28T04:44:22;10.33;;;6.27;;
13685;SDS011;6915;48.296;8.874;2023-02-28T04:46:51;13.07;;;7.30;;
13685;SDS011;6915;48.296;8.874;2023-02-28T04:49:22;19.50;;;9.90;;
13685;SDS011;6915;48.296;8.874;2023-02-28T04:51:51;25.20;;;12.83;;
13685;SDS011;6915;48.296;8.874;2023-02-28T04:54:20;12.60;;;7.90;;
13685;SDS011;6915;48.296;8.874;2023-02-28T04:56:49;16.33;;;9.27;;
13685;SDS011;6915;48.296;8.874;2023-02-28T04:59:18;7.53;;;5.67;;
13685;SDS011;6915;48.296;8.874;2023-02-28T05:01:48;8.10;;;5.50;;
13685;SDS011;6915;48.296;8.874;2023-02-28T05:04:17;7.80;;;5.27;;
13685;SDS011;6915;48.296;8.874;2023-02-28T05:06:46;5.93;;;5.33;;
13685;SDS011;6915;48.296;8.874;2023-02-28T05:09:15;7.37;;;5.67;;
13685;SDS011;6915;48.296;8.874;2023-02-28T05:11:43;7.30;;;5.33;;
13685;SDS011;6915;48.296;8.874;2023-02-28T05:14:12;9.03;;;5.80;;
13685;SDS011;6915;48.296;8.874;2023-02-28T05:16:41;7.90;;;5.27;;
13685;SDS011;6915;48.296;8.874;2023-02-28T05:19:12;7.60;;;5.77;;
13685;SDS011;6915;48.296;8.874;2023-02-28T05:21:41;11.13;;;6.00;;
13685;SDS011;6915;48.296;8.874;2023-02-28T05:24:15;6.50;;;5.53;;
13685;SDS011;6915;48.296;8.874;2023-02-28T05:26:50;7.47;;;5.53;;
13685;SDS011;6915;48.296;8.874;2023-02-28T05:29:19;11.63;;;5.83;;
13685;SDS011;6915;48.296;8.874;2023-02-28T05:31:50;10.17;;;5.80;;
13685;SDS011;6915;48.296;8.874;2023-02-28T05:34:20;9.17;;;6.20;;
13685;SDS011;6915;48.296;8.874;2023-02-28T05:36:49;7.93;;;5.90;;
13685;SDS011;6915;48.296;8.874;2023-02-28T05:39:17;8.90;;;6.37;;
13685;SDS011;6915;48.296;8.874;2023-02-28T05:41:46;6.97;;;5.90;;
13685;SDS011;6915;48.296;8.874;2023-02-28T05:44:17;7.67;;;5.90;;
13685;SDS011;6915;48.296;8.874;2023-02-28T05:46:46;7.97;;;5.90;;
13685;SDS011;6915;48.296;8.874;2023-02-28T05:49:16;9.43;;;6.20;;
13685;SDS011;6915;48.296;8.874;2023-02-28T05:51:46;10.30;;;6.50;;
13685;SDS011;6915;48.296;8.874;2023-02-28T05:54:17;9.27;;;6.13;;
13685;SDS011;6915;48.296;8.874;2023-02-28T05:56:45;8.33;;;5.77;;
13685;SDS011;6915;48.296;8.874;2023-02-28T05:59:16;7.07;;;6.37;;
13685;SDS011;6915;48.296;8.874;2023-02-28T06:01:46;9.50;;;6.23;;
13685;SDS011;6915;48.296;8.874;2023-02-28T06:04:16;7.67;;;6.10;;
13685;SDS011;6915;48.296;8.874;2023-02-28T06:06:47;7.57;;;6.00;;
13685;SDS011;6915;48.296;8.874;2023-02-28T06:09:17;11.40;;;6.30;;
13685;SDS011;6915;48.296;8.874;2023-02-28T06:11:48;7.30;;;6.50;;
13685;SDS011;6915;48.296;8.874;2023-02-28T06:14:17;8.80;;;5.60;;
13685;SDS011;6915;48.296;8.874;2023-02-28T06:16:49;10.50;;;6.80;;
13685;SDS011;6915;48.296;8.874;2023-02-28T06:19:17;7.20;;;6.50;;
13685;SDS011;6915;48.296;8.874;2023-02-28T06:21:50;13.23;;;6.77;;
13685;SDS011;6915;48.296;8.874;2023-02-28T06:24:22;7.87;;;6.50;;
13685;SDS011;6915;48.296;8.874;2023-02-28T06:26:52;9.37;;;6.63;;
13685;SDS011;6915;48.296;8.874;2023-02-28T06:29:22;9.80;;;6.73;;
13685;SDS011;6915;48.296;8.874;2023-02-28T06:32:26;10.80;;;7.10;;
13685;SDS011;6915;48.296;8.874;2023-02-28T06:34:47;9.07;;;6.93;;
13685;SDS011;6915;48.296;8.874;2023-02-28T06:37:18;10.13;;;6.40;;
13685;SDS011;6915;48.296;8.874;2023-02-28T06:39:46;9.13;;;6.47;;
13685;SDS011;6915;48.296;8.874;2023-02-28T06:42:15;8.37;;;6.57;;
13685;SDS011;6915;48.296;8.874;2023-02-28T06:44:44;12.27;;;8.00;;
13685;SDS011;6915;48.296;8.874;2023-02-28T06:47:13;10.43;;;7.70;;
13685;SDS011;6915;48.296;8.874;2023-02-28T06:49:44;10.47;;;7.33;;
13685;SDS011;6915;48.296;8.874;2023-02-28T06:52:13;9.27;;;7.13;;
13685;SDS011;6915;48.296;8.874;2023-02-28T06:54:43;11.37;;;7.60;;
13685;SDS011;6915;48.296;8.874;2023-02-28T06:57:12;10.53;;;7.47;;
13685;SDS011;6915;48.296;8.874;2023-02-28T06:59:41;12.53;;;7.73;;
13685;SDS011;6915;48.296;8.874;2023-02-28T07:02:10;9.07;;;6.83;;
13685;SDS011;6915;48.296;8.874;2023-02-28T07:04:38;13.73;;;7.33;;
13685;SDS011;6915;48.296;8.874;2023-02-28T07:07:09;10.70;;;7.03;;
13685;SDS011;6915;48.296;8.874;2023-02-28T07:09:38;9.03;;;7.10;;
13685;SDS011;6915;48.296;8.874;2023-02-28T07:12:09;12.07;;;7.33;;
13685;SDS011;6915;48.296;8.874;2023-02-28T07:14:37;10.23;;;7.70;;
13685;SDS011;6915;48.296;8.874;2023-02-28T07:17:06;9.23;;;6.90;;
13685;SDS011;6915;48.296;8.874;2023-02-28T07:19:39;7.70;;;6.57;;
13685;SDS011;6915;48.296;8.874;2023-02-28T07:22:08;11.73;;;8.13;;
13685;SDS011;6915;48.296;8.874;2023-02-28T07:24:36;11.23;;;7.97;;
13685;SDS011;6915;48.296;8.874;2023-02-28T07:27:05;9.43;;;7.90;;
13685;SDS011;6915;48.296;8.874;2023-02-28T07:29:35;11.07;;;7.27;;
13685;SDS011;6915;48.296;8.874;2023-02-28T07:32:04;9.93;;;7.10;;
13685;SDS011;6915;48.296;8.874;2023-02-28T07:34:33;11.40;;;7.70;;
13685;SDS011;6915;48.296;8.874;2023-02-28T07:37:02;10.97;;;7.83;;
13685;SDS011;6915;48.296;8.874;2023-02-28T07:39:30;8.77;;;7.40;;
13685;SDS011;6915;48.296;8.874;2023-02-28T07:41:59;10.17;;;7.47;;
13685;SDS011;6915;48.296;8.874;2023-02-28T07:44:30;10.40;;;8.07;;
13685;SDS011;6915;48.296;8.874;2023-02-28T07:47:00;12.37;;;7.57;;
13685;SDS011;6915;48.296;8.874;2023-02-28T07:49:28;8.87;;;7.37;;
13685;SDS011;6915;48.296;8.874;2023-02-28T07:51:57;12.60;;;7.83;;
13685;SDS011;6915;48.296;8.874;2023-02-28T07:54:26;8.97;;;7.60;;
13685;SDS011;6915;48.296;8.874;2023-02-28T07:56:55;11.57;;;7.83;;
13685;SDS011;6915;48.296;8.874;2023-02-28T07:59:23;12.40;;;8.53;;
13685;SDS011;6915;48.296;8.874;2023-02-28T08:01:52;11.80;;;9.30;;
13685;SDS011;6915;48.296;8.874;2023-02-28T08:04:26;13.07;;;9.83;;
13685;SDS011;6915;48.296;8.874;2023-02-28T08:06:57;11.90;;;9.30;;
13685;SDS011;6915;48.296;8.874;2023-02-28T08:09:26;9.60;;;8.43;;
13685;SDS011;6915;48.296;8.874;2023-02-28T08:11:54;11.83;;;8.80;;
13685;SDS011;6915;48.296;8.874;2023-02-28T08:14:23;10.93;;;9.03;;
13685;SDS011;6915;48.296;8.874;2023-02-28T08:16:52;9.47;;;8.13;;
13685;SDS011;6915;48.296;8.874;2023-02-28T08:19:21;12.30;;;9.30;;
13685;SDS011;6915;48.296;8.874;2023-02-28T08:21:51;10.17;;;8.30;;
13685;SDS011;6915;48.296;8.874;2023-02-28T08:24:20;13.60;;;9.47;;
13685;SDS011;6915;48.296;8.874;2023-02-28T08:26:49;13.00;;;9.03;;
13685;SDS011;6915;48.296;8.874;2023-02-28T08:29:17;10.63;;;9.03;;
13685;SDS011;6915;48.296;8.874;2023-02-28T08:31:46;11.67;;;8.90;;
13685;SDS011;6915;48.296;8.874;2023-02-28T08:34:15;11.10;;;9.30;;
13685;SDS011;6915;48.296;8.874;2023-02-28T08:36:45;10.53;;;8.47;;
13685;SDS011;6915;48.296;8.874;2023-02-28T08:39:15;11.70;;;8.83;;
13685;SDS011;6915;48.296;8.874;2023-02-28T08:41:45;12.13;;;9.10;;
13685;SDS011;6915;48.296;8.874;2023-02-28T08:44:13;12.63;;;9.20;;
13685;SDS011;6915;48.296;8.874;2023-02-28T08:46:42;12.63;;;9.87;;
13685;SDS011;6915;48.296;8.874;2023-02-28T08:49:11;12.87;;;9.33;;
13685;SDS011;6915;48.296;8.874;2023-02-28T08:51:40;12.53;;;9.53;;
13685;SDS011;6915;48.296;8.874;2023-02-28T08:54:09;11.50;;;9.27;;
13685;SDS011;6915;48.296;8.874;2023-02-28T08:56:39;11.70;;;9.33;;
13685;SDS011;6915;48.296;8.874;2023-02-28T08:59:08;10.57;;;8.80;;
13685;SDS011;6915;48.296;8.874;2023-02-28T09:01:37;10.87;;;9.60;;
13685;SDS011;6915;48.296;8.874;2023-02-28T09:04:08;10.33;;;8.80;;
13685;SDS011;6915;48.296;8.874;2023-02-28T09:06:37;10.97;;;8.97;;
13685;SDS011;6915;48.296;8.874;2023-02-28T09:09:07;11.63;;;9.50;;
13685;SDS011;6915;48.296;8.874;2023-02-28T09:11:36;11.33;;;9.30;;
13685;SDS011;6915;48.296;8.874;2023-02-28T09:14:06;11.23;;;9.10;;
13685;SDS011;6915;48.296;8.874;2023-02-28T09:16:35;11.57;;;8.27;;
13685;SDS011;6915;48.296;8.874;2023-02-28T09:19:04;13.87;;;9.50;;
13685;SDS011;6915;48.296;8.874;2023-02-28T09:21:36;13.90;;;9.53;;
13685;SDS011;6915;48.296;8.874;2023-02-28T09:24:05;12.23;;;9.30;;
13685;SDS011;6915;48.296;8.874;2023-02-28T09:26:36;13.40;;;8.77;;
13685;SDS011;6915;48.296;8.874;2023-02-28T09:29:07;10.87;;;8.83;;
13685;SDS011;6915;48.296;8.874;2023-02-28T09:31:36;12.63;;;8.97;;
13685;SDS011;6915;48.296;8.874;2023-02-28T09:34:05;10.30;;;8.67;;
13685;SDS011;6915;48.296;8.874;2023-02-28T09:36:33;12.43;;;8.90;;
13685;SDS011;6915;48.296;8.874;2023-02-28T09:39:03;13.63;;;9.10;;
13685;SDS011;6915;48.296;8.874;2023-02-28T09:41:38;10.70;;;8.00;;
13685;SDS011;6915;48.296;8.874;2023-02-28T09:44:15;11.47;;;9.23;;
13685;SDS011;6915;48.296;8.874;2023-02-28T09:46:46;10.70;;;9.00;;
13685;SDS011;6915;48.296;8.874;2023-02-28T09:49:22;11.50;;;9.50;;
13685;SDS011;6915;48.296;8.874;2023-02-28T09:51:58;12.27;;;9.83;;
13685;SDS011;6915;48.296;8.874;2023-02-28T09:54:30;12.73;;;9.53;;
13685;SDS011;6915;48.296;8.874;2023-02-28T09:57:00;13.97;;;9.47;;
13685;SDS011;6915;48.296;8.874;2023-02-28T09:59:38;12.10;;;9.57;;
13685;SDS011;6915;48.296;8.874;2023-02-28T10:02:14;12.87;;;9.40;;
13685;SDS011;6915;48.296;8.874;2023-02-28T10:04:50;11.50;;;9.83;;
13685;SDS011;6915;48.296;8.874;2023-02-28T10:07:23;13.23;;;9.73;;
13685;SDS011;6915;48.296;8.874;2023-02-28T10:10:04;11.83;;;10.00;;
13685;SDS011;6915;48.296;8.874;2023-02-28T10:12:41;13.20;;;10.33;;
13685;SDS011;6915;48.296;8.874;2023-02-28T10:15:14;12.80;;;10.27;;
13685;SDS011;6915;48.296;8.874;2023-02-28T10:17:44;11.03;;;9.90;;
13685;SDS011;6915;48.296;8.874;2023-02-28T10:20:16;13.77;;;10.10;;
13685;SDS011;6915;48.296;8.874;2023-02-28T10:22:50;11.90;;;9.93;;
13685;SDS011;6915;48.296;8.874;2023-02-28T10:25:25;11.53;;;9.47;;
13685;SDS011;6915;48.296;8.874;2023-02-28T10:27:56;15.60;;;11.53;;
13685;SDS011;6915;48.296;8.874;2023-02-28T10:30:36;11.87;;;9.30;;
13685;SDS011;6915;48.296;8.874;2023-02-28T10:33:05;11.43;;;9.53;;
13685;SDS011;6915;48.296;8.874;2023-02-28T10:35:41;11.67;;;9.13;;
13685;SDS011;6915;48.296;8.874;2023-02-28T10:38:12;12.30;;;9.87;;
13685;SDS011;6915;48.296;8.874;2023-02-28T10:40:42;12.57;;;10.33;;
13685;SDS011;6915;48.296;8.874;2023-02-28T10:43:21;13.43;;;10.57;;
13685;SDS011;6915;48.296;8.874;2023-02-28T10:45:57;14.13;;;10.67;;
13685;SDS011;6915;48.296;8.874;2023-02-28T10:48:29;14.33;;;10.20;;
13685;SDS011;6915;48.296;8.874;2023-02-28T10:50:59;15.17;;;10.77;;
13685;SDS011;6915;48.296;8.874;2023-02-28T10:53:33;13.40;;;10.27;;
13685;SDS011;6915;48.296;8.874;2023-02-28T10:56:04;12.63;;;9.77;;
13685;SDS011;6915;48.296;8.874;2023-02-28T16:22:49;12.77;;;8.77;;
13685;SDS011;6915;48.296;8.874;2023-02-28T16:25:20;10.47;;;9.00;;
13685;SDS011;6915;48.296;8.874;2023-02-28T16:27:53;12.07;;;8.50;;
13685;SDS011;6915;48.296;8.874;2023-02-28T16:30:26;10.03;;;8.93;;
13685;SDS011;6915;48.296;8.874;2023-02-28T18:03:34;16.13;;;11.90;;
13685;SDS011;6915;48.296;8.874;2023-02-28T18:06:04;14.80;;;11.80;;
13685;SDS011;6915;48.296;8.874;2023-02-28T18:08:36;13.60;;;10.47;;
13685;SDS011;6915;48.296;8.874;2023-02-28T18:11:06;13.60;;;10.00;;
13685;SDS011;6915;48.296;8.874;2023-02-28T18:13:42;10.63;;;9.47;;
13685;SDS011;6915;48.296;8.874;2023-02-28T18:16:10;11.40;;;9.13;;
13685;SDS011;6915;48.296;8.874;2023-02-28T18:18:41;10.23;;;8.50;;
13685;SDS011;6915;48.296;8.874;2023-02-28T18:21:14;15.37;;;11.70;;
13685;SDS011;6915;48.296;8.874;2023-02-28T18:23:44;13.90;;;10.67;;
13685;SDS011;6915;48.296;8.874;2023-02-28T18:26:14;14.10;;;11.03;;
13685;SDS011;6915;48.296;8.874;2023-02-28T18:28:44;15.00;;;10.93;;
13685;SDS011;6915;48.296;8.874;2023-02-28T18:31:14;14.83;;;11.07;;
13685;SDS011;6915;48.296;8.874;2023-02-28T18:33:49;12.37;;;10.07;;
13685;SDS011;6915;48.296;8.874;2023-02-28T18:36:19;11.77;;;9.40;;
13685;SDS011;6915;48.296;8.874;2023-02-28T18:38:48;12.17;;;10.23;;
13685;SDS011;6915;48.296;8.874;2023-02-28T18:41:21;12.93;;;10.27;;
13685;SDS011;6915;48.296;8.874;2023-02-28T18:43:50;13.87;;;10.33;;
13685;SDS011;6915;48.296;8.874;2023-02-28T18:46:20;16.80;;;11.17;;
13685;SDS011;6915;48.296;8.874;2023-02-28T18:48:54;13.97;;;10.97;;
13685;SDS011;6915;48.296;8.874;2023-02-28T18:51:37;14.23;;;10.50;;
13685;SDS011;6915;48.296;8.874;2023-02-28T21:56:00;21.87;;;15.00;;
13685;SDS011;6915;48.296;8.874;2023-02-28T21:58:30;21.23;;;14.23;;
13685;SDS011;6915;48.296;8.874;2023-02-28T22:01:03;25.83;;;15.50;;
13685;SDS011;6915;48.296;8.874;2023-02-28T22:03:33;22.03;;;13.97;;
13685;SDS011;6915;48.296;8.874;2023-02-28T22:06:07;24.57;;;16.07;;
13685;SDS011;6915;48.296;8.874;2023-02-28T22:08:36;23.40;;;15.53;;
13685;SDS011;6915;48.296;8.874;2023-02-28T22:11:06;22.67;;;15.00;;
13685;SDS011;6915;48.296;8.874;2023-02-28T22:13:35;23.40;;;15.67;;
13685;SDS011;6915;48.296;8.874;2023-02-28T22:16:06;22.73;;;15.80;;
13685;SDS011;6915;48.296;8.874;2023-02-28T22:18:37;22.57;;;15.33;;
13685;SDS011;6915;48.296;8.874;2023-02-28T22:21:07;23.20;;;14.93;;
13685;SDS011;6915;48.296;8.874;2023-02-28T22:23:37;20.23;;;14.10;;
13685;SDS011;6915;48.296;8.874;2023-02-28T22:26:10;23.07;;;15.00;;
13685;SDS011;6915;48.296;8.874;2023-02-28T22:28:40;22.03;;;14.80;;
13685;SDS011;6915;48.296;8.874;2023-02-28T22:31:16;19.90;;;14.10;;
13685;SDS011;6915;48.296;8.874;2023-02-28T22:33:49;19.90;;;14.27;;
13685;SDS011;6915;48.296;8.874;2023-02-28T22:36:19;20.43;;;14.00;;
13685;SDS011;6915;48.296;8.874;2023-02-28T22:38:49;21.00;;;15.00;;
13685;SDS011;6915;48.296;8.874;2023-02-28T22:41:20;24.13;;;15.27;;
13685;SDS011;6915;48.296;8.874;2023-02-28T22:43:52;22.17;;;14.47;;
13685;SDS011;6915;48.296;8.874;2023-02-28T22:46:23;20.70;;;14.40;;
13685;SDS011;6915;48.296;8.874;2023-02-28T22:48:53;21.50;;;14.90;;
13685;SDS011;6915;48.296;8.874;2023-02-28T22:51:24;23.47;;;15.07;;
13685;SDS011;6915;48.296;8.874;2023-02-28T22:54:04;24.77;;;15.00;;
13685;SDS011;6915;48.296;8.874;2023-02-28T22:56:37;24.07;;;14.87;;
13685;SDS011;6915;48.296;8.874;2023-02-28T22:59:05;20.93;;;15.00;;
13685;SDS011;6915;48.296;8.874;2023-02-28T23:01:37;25.77;;;15.00;;
13685;SDS011;6915;48.296;8.874;2023-02-28T23:04:08;22.57;;;14.87;;
13685;SDS011;6915;48.296;8.874;2023-02-28T23:06:38;19.90;;;14.20;;
13685;SDS011;6915;48.296;8.874;2023-02-28T23:09:09;21.33;;;14.63;;
13685;SDS011;6915;48.296;8.874;2023-02-28T23:11:44;21.67;;;14.40;;
13685;SDS011;6915;48.296;8.874;2023-02-28T23:14:15;23.43;;;14.73;;
13685;SDS011;6915;48.296;8.874;2023-02-28T23:16:46;22.13;;;14.27;;
13685;SDS011;6915;48.296;8.874;2023-02-28T23:19:17;24.40;;;15.50;;
13685;SDS011;6915;48.296;8.874;2023-02-28T23:21:47;20.57;;;13.77;;
13685;SDS011;6915;48.296;8.874;2023-02-28T23:24:16;19.93;;;13.90;;
13685;SDS011;6915;48.296;8.874;2023-02-28T23:26:50;22.03;;;14.37;;
13685;SDS011;6915;48.296;8.874;2023-02-28T23:29:21;21.33;;;13.90;;
13685;SDS011;6915;48.296;8.874;2023-02-28T23:31:51;19.87;;;14.20;;
13685;SDS011;6915;48.296;8.874;2023-02-28T23:34:21;23.57;;;14.13;;
13685;SDS011;6915;48.296;8.874;2023-02-28T23:36:55;20.67;;;13.67;;
13685;SDS011;6915;48.296;8.874;2023-02-28T23:39:25;21.00;;;13.70;;
13685;SDS011;6915;48.296;8.874;2023-02-28T23:41:56;22.40;;;14.23;;
13685;SDS011;6915;48.296;8.874;2023-02-28T23:44:26;19.87;;;14.20;;
13685;SDS011;6915;48.296;8.874;2023-02-28T23:46:55;22.40;;;14.73;;
13685;SDS011;6915;48.296;8.874;2023-02-28T23:49:24;22.10;;;14.93;;
13685;SDS011;6915;48.296;8.874;2023-02-28T23:51:53;21.73;;;13.97;;
13685;SDS011;6915;48.296;8.874;2023-02-28T23:54:22;21.97;;;13.90;;
13685;SDS011;6915;48.296;8.874;2023-02-28T23:56:52;25.13;;;14.90;;
13685;SDS011;6915;48.296;8.874;2023-02-28T23:59:23;19.97;;;13.70;;
